sensor_id;sensor_type;location;lat;lon;timestamp;pressure;altitude;pressure_sealevel;temperature;humidity
74893;BME280;63446;56.272;43.922;2023-11-19T00:00:58;101731.19;;;-4.71;61.66
74893;BME280;63446;56.272;43.922;2023-11-19T00:03:26;101727.09;;;-4.74;61.66
74893;BME280;63446;56.272;43.922;2023-11-19T00:05:51;101725.47;;;-4.75;61.77
74893;BME280;63446;56.272;43.922;2023-11-19T00:08:17;101730.78;;;-4.76;61.64
74893;BME280;63446;56.272;43.922;2023-11-19T00:10:43;101733.47;;;-4.78;61.97
74893;BME280;63446;56.272;43.922;2023-11-19T00:13:09;101733.63;;;-4.79;61.88
74893;BME280;63446;56.272;43.922;2023-11-19T00:15:35;101738.78;;;-4.79;62.00
74893;BME280;63446;56.272;43.922;2023-11-19T00:18:02;101737.97;;;-4.80;61.82
74893;BME280;63446;56.272;43.922;2023-11-19T00:20:30;101732.13;;;-4.82;61.90
74893;BME280;63446;56.272;43.922;2023-11-19T00:22:56;101736.59;;;-4.84;61.91
74893;BME280;63446;56.272;43.922;2023-11-19T00:25:23;101734.03;;;-4.84;61.90
74893;BME280;63446;56.272;43.922;2023-11-19T00:27:50;101738.34;;;-4.84;61.91
74893;BME280;63446;56.272;43.922;2023-11-19T00:30:19;101736.72;;;-4.85;61.89
74893;BME280;63446;56.272;43.922;2023-11-19T00:32:45;101725.59;;;-4.86;61.81
74893;BME280;63446;56.272;43.922;2023-11-19T00:35:12;101722.34;;;-4.88;61.88
74893;BME280;63446;56.272;43.922;2023-11-19T00:37:41;101726.81;;;-4.90;61.86
74893;BME280;63446;56.272;43.922;2023-11-19T00:40:09;101723.28;;;-4.89;61.89
74893;BME280;63446;56.272;43.922;2023-11-19T00:42:36;101721.66;;;-4.90;61.81
74893;BME280;63446;56.272;43.922;2023-11-19T00:45:04;101716.66;;;-4.92;62.08
74893;BME280;63446;56.272;43.922;2023-11-19T00:47:36;101712.56;;;-4.94;62.02
74893;BME280;63446;56.272;43.922;2023-11-19T00:50:03;101710.13;;;-4.96;61.99
74893;BME280;63446;56.272;43.922;2023-11-19T00:52:30;101712.72;;;-4.96;62.04
74893;BME280;63446;56.272;43.922;2023-11-19T00:54:57;101708.47;;;-4.97;61.98
74893;BME280;63446;56.272;43.922;2023-11-19T00:57:23;101699.13;;;-4.98;61.90
74893;BME280;63446;56.272;43.922;2023-11-19T00:59:49;101700.06;;;-4.99;62.01
74893;BME280;63446;56.272;43.922;2023-11-19T01:02:15;101707.94;;;-5.00;61.99
74893;BME280;63446;56.272;43.922;2023-11-19T01:04:42;101711.47;;;-5.01;61.99
74893;BME280;63446;56.272;43.922;2023-11-19T01:07:08;101702.22;;;-5.04;62.09
74893;BME280;63446;56.272;43.922;2023-11-19T01:09:38;101698.03;;;-5.05;62.06
74893;BME280;63446;56.272;43.922;2023-11-19T01:12:05;101698.16;;;-5.06;62.11
74893;BME280;63446;56.272;43.922;2023-11-19T01:14:31;101702.50;;;-5.07;62.03
74893;BME280;63446;56.272;43.922;2023-11-19T01:16:57;101696.50;;;-5.07;62.07
74893;BME280;63446;56.272;43.922;2023-11-19T01:19:24;101697.63;;;-5.10;62.02
74893;BME280;63446;56.272;43.922;2023-11-19T01:21:50;101702.78;;;-5.10;62.18
74893;BME280;63446;56.272;43.922;2023-11-19T01:24:17;101707.22;;;-5.12;62.28
74893;BME280;63446;56.272;43.922;2023-11-19T01:26:44;101705.59;;;-5.13;62.14
74893;BME280;63446;56.272;43.922;2023-11-19T01:29:14;101710.91;;;-5.14;62.21
74893;BME280;63446;56.272;43.922;2023-11-19T01:31:45;101703.44;;;-5.18;62.26
74893;BME280;63446;56.272;43.922;2023-11-19T01:34:12;101696.50;;;-5.17;62.33
74893;BME280;63446;56.272;43.922;2023-11-19T01:36:39;101698.41;;;-5.19;62.39
74893;BME280;63446;56.272;43.922;2023-11-19T01:39:05;101690.00;;;-5.21;62.36
74893;BME280;63446;56.272;43.922;2023-11-19T01:41:35;101688.38;;;-5.22;62.25
74893;BME280;63446;56.272;43.922;2023-11-19T01:44:02;101689.44;;;-5.25;62.37
74893;BME280;63446;56.272;43.922;2023-11-19T01:46:29;101671.56;;;-5.26;62.24
74893;BME280;63446;56.272;43.922;2023-11-19T01:48:59;101678.59;;;-5.28;62.47
74893;BME280;63446;56.272;43.922;2023-11-19T01:51:26;101684.00;;;-5.31;62.36
74893;BME280;63446;56.272;43.922;2023-11-19T01:53:54;101692.81;;;-5.34;62.36
74893;BME280;63446;56.272;43.922;2023-11-19T01:56:21;101697.13;;;-5.34;62.43
74893;BME280;63446;56.272;43.922;2023-11-19T01:58:48;101684.78;;;-5.41;62.53
74893;BME280;63446;56.272;43.922;2023-11-19T02:01:15;101691.47;;;-5.38;62.57
74893;BME280;63446;56.272;43.922;2023-11-19T02:03:43;101687.22;;;-5.39;62.57
74893;BME280;63446;56.272;43.922;2023-11-19T02:06:09;101675.81;;;-5.46;62.59
74893;BME280;63446;56.272;43.922;2023-11-19T02:08:36;101696.97;;;-5.43;62.54
74893;BME280;63446;56.272;43.922;2023-11-19T02:11:04;101691.03;;;-5.43;62.60
74893;BME280;63446;56.272;43.922;2023-11-19T02:13:32;101683.53;;;-5.46;62.57
74893;BME280;63446;56.272;43.922;2023-11-19T02:15:59;101684.25;;;-5.44;62.69
74893;BME280;63446;56.272;43.922;2023-11-19T02:18:28;101688.44;;;-5.43;62.78
74893;BME280;63446;56.272;43.922;2023-11-19T02:20:55;101690.91;;;-5.42;62.73
74893;BME280;63446;56.272;43.922;2023-11-19T02:23:22;101695.09;;;-5.41;62.72
74893;BME280;63446;56.272;43.922;2023-11-19T02:26:25;101693.47;;;-5.42;62.87
74893;BME280;63446;56.272;43.922;2023-11-19T02:28:55;101686.56;;;-5.41;62.61
74893;BME280;63446;56.272;43.922;2023-11-19T02:31:20;101683.84;;;-5.40;62.78
74893;BME280;63446;56.272;43.922;2023-11-19T02:33:48;101678.69;;;-5.40;62.85
74893;BME280;63446;56.272;43.922;2023-11-19T02:36:16;101689.00;;;-5.40;62.81
74893;BME280;63446;56.272;43.922;2023-11-19T02:38:42;101685.75;;;-5.42;62.68
74893;BME280;63446;56.272;43.922;2023-11-19T02:41:09;101684.78;;;-5.41;62.84
74893;BME280;63446;56.272;43.922;2023-11-19T02:43:37;101685.59;;;-5.40;62.98
74893;BME280;63446;56.272;43.922;2023-11-19T02:46:05;101689.81;;;-5.39;62.93
74893;BME280;63446;56.272;43.922;2023-11-19T02:48:35;101694.16;;;-5.40;62.89
74893;BME280;63446;56.272;43.922;2023-11-19T02:51:05;101682.34;;;-5.42;62.96
74893;BME280;63446;56.272;43.922;2023-11-19T02:53:35;101683.03;;;-5.40;62.93
74893;BME280;63446;56.272;43.922;2023-11-19T02:56:03;101678.94;;;-5.43;63.04
74893;BME280;63446;56.272;43.922;2023-11-19T02:58:51;101690.75;;;-5.40;62.94
74893;BME280;63446;56.272;43.922;2023-11-19T03:01:24;101685.75;;;-5.42;62.96
74893;BME280;63446;56.272;43.922;2023-11-19T03:04:02;101679.75;;;-5.42;62.91
74893;BME280;63446;56.272;43.922;2023-11-19T03:06:29;101681.53;;;-5.43;62.98
74893;BME280;63446;56.272;43.922;2023-11-19T03:08:55;101680.72;;;-5.43;63.11
74893;BME280;63446;56.272;43.922;2023-11-19T03:11:22;101680.72;;;-5.43;63.03
74893;BME280;63446;56.272;43.922;2023-11-19T03:13:48;101677.31;;;-5.44;62.95
74893;BME280;63446;56.272;43.922;2023-11-19T03:16:13;101669.03;;;-5.47;63.02
74893;BME280;63446;56.272;43.922;2023-11-19T03:18:39;101679.22;;;-5.46;63.26
74893;BME280;63446;56.272;43.922;2023-11-19T03:21:06;101673.38;;;-5.48;63.01
74893;BME280;63446;56.272;43.922;2023-11-19T03:23:34;101677.59;;;-5.47;63.19
74893;BME280;63446;56.272;43.922;2023-11-19T03:26:01;101673.53;;;-5.49;63.04
74893;BME280;63446;56.272;43.922;2023-11-19T03:28:31;101669.31;;;-5.50;63.24
74893;BME280;63446;56.272;43.922;2023-11-19T03:30:57;101680.31;;;-5.48;63.10
74893;BME280;63446;56.272;43.922;2023-11-19T03:33:24;101675.56;;;-5.53;63.24
74893;BME280;63446;56.272;43.922;2023-11-19T03:35:52;101678.78;;;-5.51;63.01
74893;BME280;63446;56.272;43.922;2023-11-19T03:38:18;101675.56;;;-5.53;63.05
74893;BME280;63446;56.272;43.922;2023-11-19T03:40:44;101671.22;;;-5.52;63.23
74893;BME280;63446;56.272;43.922;2023-11-19T03:43:10;101685.84;;;-5.53;63.31
74893;BME280;63446;56.272;43.922;2023-11-19T03:45:36;101676.47;;;-5.54;63.21
74893;BME280;63446;56.272;43.922;2023-11-19T03:48:02;101684.19;;;-5.54;63.22
74893;BME280;63446;56.272;43.922;2023-11-19T03:50:28;101681.63;;;-5.54;63.35
74893;BME280;63446;56.272;43.922;2023-11-19T03:52:54;101680.81;;;-5.54;63.21
74893;BME280;63446;56.272;43.922;2023-11-19T03:55:20;101679.88;;;-5.53;63.32
74893;BME280;63446;56.272;43.922;2023-11-19T03:57:46;101674.44;;;-5.50;63.26
74893;BME280;63446;56.272;43.922;2023-11-19T04:00:14;101679.59;;;-5.50;63.16
74893;BME280;63446;56.272;43.922;2023-11-19T04:02:41;101684.50;;;-5.47;63.05
74893;BME280;63446;56.272;43.922;2023-11-19T04:05:08;101689.41;;;-5.44;63.23
74893;BME280;63446;56.272;43.922;2023-11-19T04:07:35;101690.38;;;-5.35;63.24
74893;BME280;63446;56.272;43.922;2023-11-19T04:10:02;101690.50;;;-5.27;63.20
74893;BME280;63446;56.272;43.922;2023-11-19T04:12:29;101690.16;;;-5.13;63.19
74893;BME280;63446;56.272;43.922;2023-11-19T04:14:55;101690.84;;;-5.01;62.79
74893;BME280;63446;56.272;43.922;2023-11-19T04:17:22;101694.09;;;-4.89;62.79
74893;BME280;63446;56.272;43.922;2023-11-19T04:19:48;101692.09;;;-4.76;62.67
74893;BME280;63446;56.272;43.922;2023-11-19T04:22:14;101693.56;;;-4.64;62.61
74893;BME280;63446;56.272;43.922;2023-11-19T04:24:40;101689.91;;;-4.52;62.43
74893;BME280;63446;56.272;43.922;2023-11-19T04:27:06;101697.63;;;-4.42;62.27
74893;BME280;63446;56.272;43.922;2023-11-19T04:29:33;101703.59;;;-4.32;62.12
74893;BME280;63446;56.272;43.922;2023-11-19T04:32:00;101707.09;;;-4.23;62.12
74893;BME280;63446;56.272;43.922;2023-11-19T04:34:27;101701.81;;;-4.22;61.88
74893;BME280;63446;56.272;43.922;2023-11-19T04:36:53;101706.81;;;-4.10;61.85
74893;BME280;63446;56.272;43.922;2023-11-19T04:39:20;101707.38;;;-4.07;61.63
74893;BME280;63446;56.272;43.922;2023-11-19T04:41:50;101708.72;;;-4.03;61.54
74893;BME280;63446;56.272;43.922;2023-11-19T04:44:18;101712.63;;;-3.99;61.30
74893;BME280;63446;56.272;43.922;2023-11-19T04:46:45;101708.13;;;-3.97;61.32
74893;BME280;63446;56.272;43.922;2023-11-19T04:49:13;101713.19;;;-3.95;61.14
74893;BME280;63446;56.272;43.922;2023-11-19T04:51:44;101712.22;;;-3.94;61.01
74893;BME280;63446;56.272;43.922;2023-11-19T04:54:12;101718.19;;;-3.94;60.90
74893;BME280;63446;56.272;43.922;2023-11-19T04:56:38;101714.66;;;-3.93;60.87
74893;BME280;63446;56.272;43.922;2023-11-19T04:59:06;101712.06;;;-3.93;60.88
74893;BME280;63446;56.272;43.922;2023-11-19T05:01:33;101716.00;;;-3.88;60.72
74893;BME280;63446;56.272;43.922;2023-11-19T05:03:59;101710.00;;;-3.89;60.61
74893;BME280;63446;56.272;43.922;2023-11-19T05:06:26;101715.72;;;-3.85;60.51
74893;BME280;63446;56.272;43.922;2023-11-19T05:08:53;101720.44;;;-3.81;60.37
74893;BME280;63446;56.272;43.922;2023-11-19T05:11:20;101729.69;;;-3.78;60.20
74893;BME280;63446;56.272;43.922;2023-11-19T05:13:46;101726.84;;;-3.75;60.20
74893;BME280;63446;56.272;43.922;2023-11-19T05:16:12;101732.53;;;-3.72;60.06
74893;BME280;63446;56.272;43.922;2023-11-19T05:18:40;101733.06;;;-3.68;59.99
74893;BME280;63446;56.272;43.922;2023-11-19T05:21:06;101739.72;;;-3.65;59.83
74893;BME280;63446;56.272;43.922;2023-11-19T05:23:35;101745.41;;;-3.62;59.68
74893;BME280;63446;56.272;43.922;2023-11-19T05:26:01;101734.13;;;-3.61;59.61
74893;BME280;63446;56.272;43.922;2023-11-19T05:28:28;101745.94;;;-3.58;59.46
74893;BME280;63446;56.272;43.922;2023-11-19T05:30:54;101745.94;;;-3.58;59.42
74893;BME280;63446;56.272;43.922;2023-11-19T05:33:21;101746.47;;;-3.55;59.23
74893;BME280;63446;56.272;43.922;2023-11-19T05:35:47;101751.53;;;-3.53;59.16
74893;BME280;63446;56.272;43.922;2023-11-19T05:38:13;101748.50;;;-3.49;59.05
74893;BME280;63446;56.272;43.922;2023-11-19T05:40:41;101745.50;;;-3.44;58.92
74893;BME280;63446;56.272;43.922;2023-11-19T05:43:07;101746.97;;;-3.41;58.78
74893;BME280;63446;56.272;43.922;2023-11-19T05:45:33;101749.25;;;-3.38;58.88
74893;BME280;63446;56.272;43.922;2023-11-19T05:47:59;101745.47;;;-3.34;58.74
74893;BME280;63446;56.272;43.922;2023-11-19T05:50:25;101750.31;;;-3.31;58.58
74893;BME280;63446;56.272;43.922;2023-11-19T05:52:51;101752.63;;;-3.28;58.55
74893;BME280;63446;56.272;43.922;2023-11-19T05:55:19;101756.69;;;-3.26;58.53
74893;BME280;63446;56.272;43.922;2023-11-19T05:57:45;101751.91;;;-3.21;58.32
74893;BME280;63446;56.272;43.922;2023-11-19T06:00:12;101748.22;;;-3.18;58.29
74893;BME280;63446;56.272;43.922;2023-11-19T06:02:39;101747.63;;;-3.12;58.25
74893;BME280;63446;56.272;43.922;2023-11-19T06:05:05;101750.75;;;-3.08;58.08
74893;BME280;63446;56.272;43.922;2023-11-19T06:07:33;101752.88;;;-3.04;58.08
74893;BME280;63446;56.272;43.922;2023-11-19T06:09:59;101755.34;;;-3.02;58.06
74893;BME280;63446;56.272;43.922;2023-11-19T06:12:26;101744.84;;;-3.01;58.01
74893;BME280;63446;56.272;43.922;2023-11-19T06:14:54;101743.75;;;-2.98;58.06
74893;BME280;63446;56.272;43.922;2023-11-19T06:17:21;101736.34;;;-2.93;58.10
74893;BME280;63446;56.272;43.922;2023-11-19T06:19:47;101743.69;;;-2.88;57.91
74893;BME280;63446;56.272;43.922;2023-11-19T06:22:12;101736.44;;;-2.85;57.82
74893;BME280;63446;56.272;43.922;2023-11-19T06:24:39;101736.66;;;-2.78;57.63
74893;BME280;63446;56.272;43.922;2023-11-19T06:27:05;101735.94;;;-2.71;57.54
74893;BME280;63446;56.272;43.922;2023-11-19T06:29:31;101728.41;;;-2.64;57.40
74893;BME280;63446;56.272;43.922;2023-11-19T06:31:57;101732.97;;;-2.58;57.24
74893;BME280;63446;56.272;43.922;2023-11-19T06:34:23;101721.06;;;-2.51;56.94
74893;BME280;63446;56.272;43.922;2023-11-19T06:36:49;101728.25;;;-2.44;56.84
74893;BME280;63446;56.272;43.922;2023-11-19T06:39:15;101732.81;;;-2.38;56.84
74893;BME280;63446;56.272;43.922;2023-11-19T06:41:45;101742.72;;;-2.34;56.40
74893;BME280;63446;56.272;43.922;2023-11-19T06:44:12;101731.13;;;-2.30;56.26
74893;BME280;63446;56.272;43.922;2023-11-19T06:46:39;101737.63;;;-2.26;56.04
74893;BME280;63446;56.272;43.922;2023-11-19T06:49:06;101731.81;;;-2.19;56.04
74893;BME280;63446;56.272;43.922;2023-11-19T06:51:35;101738.84;;;-2.12;55.90
74893;BME280;63446;56.272;43.922;2023-11-19T06:54:01;101732.25;;;-2.06;55.70
74893;BME280;63446;56.272;43.922;2023-11-19T06:56:26;101726.78;;;-2.03;55.58
74893;BME280;63446;56.272;43.922;2023-11-19T06:58:53;101730.69;;;-1.99;55.49
74893;BME280;63446;56.272;43.922;2023-11-19T07:01:19;101738.97;;;-1.95;55.43
74893;BME280;63446;56.272;43.922;2023-11-19T07:03:46;101739.59;;;-1.93;55.41
74893;BME280;63446;56.272;43.922;2023-11-19T07:06:12;101742.06;;;-1.92;55.43
74893;BME280;63446;56.272;43.922;2023-11-19T07:08:41;101749.00;;;-1.92;55.22
74893;BME280;63446;56.272;43.922;2023-11-19T07:11:07;101746.28;;;-1.91;55.21
74893;BME280;63446;56.272;43.922;2023-11-19T07:13:35;101750.66;;;-1.91;55.11
74893;BME280;63446;56.272;43.922;2023-11-19T07:16:01;101760.19;;;-1.92;55.11
74893;BME280;63446;56.272;43.922;2023-11-19T07:18:28;101764.06;;;-1.96;55.04
74893;BME280;63446;56.272;43.922;2023-11-19T07:20:54;101758.88;;;-1.96;55.00
74893;BME280;63446;56.272;43.922;2023-11-19T07:23:20;101757.09;;;-1.95;55.03
74893;BME280;63446;56.272;43.922;2023-11-19T07:25:47;101754.19;;;-1.92;54.97
74893;BME280;63446;56.272;43.922;2023-11-19T07:28:14;101759.75;;;-1.87;55.00
74893;BME280;63446;56.272;43.922;2023-11-19T07:30:40;101763.34;;;-1.80;54.91
74893;BME280;63446;56.272;43.922;2023-11-19T07:33:06;101763.53;;;-1.74;54.71
74893;BME280;63446;56.272;43.922;2023-11-19T07:35:32;101763.75;;;-1.67;54.41
74893;BME280;63446;56.272;43.922;2023-11-19T07:37:58;101754.56;;;-1.61;54.39
74893;BME280;63446;56.272;43.922;2023-11-19T07:40:24;101749.22;;;-1.52;54.17
74893;BME280;63446;56.272;43.922;2023-11-19T07:42:51;101741.66;;;-1.45;53.97
74893;BME280;63446;56.272;43.922;2023-11-19T07:45:17;101741.38;;;-1.34;53.90
74893;BME280;63446;56.272;43.922;2023-11-19T07:47:43;101743.69;;;-1.23;53.67
74893;BME280;63446;56.272;43.922;2023-11-19T07:50:12;101742.44;;;-1.10;53.30
74893;BME280;63446;56.272;43.922;2023-11-19T07:52:42;101744.44;;;-0.96;53.05
74893;BME280;63446;56.272;43.922;2023-11-19T07:55:08;101736.16;;;-0.83;52.85
74893;BME280;63446;56.272;43.922;2023-11-19T07:57:34;101738.78;;;-0.75;52.67
74893;BME280;63446;56.272;43.922;2023-11-19T08:00:00;101739.09;;;-0.62;52.45
74893;BME280;63446;56.272;43.922;2023-11-19T08:02:30;101727.28;;;-0.56;52.27
74893;BME280;63446;56.272;43.922;2023-11-19T08:04:56;101724.50;;;-0.46;51.99
74893;BME280;63446;56.272;43.922;2023-11-19T08:07:21;101718.66;;;-0.40;51.98
74893;BME280;63446;56.272;43.922;2023-11-19T08:09:48;101711.03;;;-0.34;51.66
74893;BME280;63446;56.272;43.922;2023-11-19T08:12:14;101708.13;;;-0.31;51.67
74893;BME280;63446;56.272;43.922;2023-11-19T08:14:41;101708.59;;;-0.27;51.59
74893;BME280;63446;56.272;43.922;2023-11-19T08:17:07;101700.47;;;-0.24;51.55
74893;BME280;63446;56.272;43.922;2023-11-19T08:19:33;101692.38;;;-0.29;51.33
74893;BME280;63446;56.272;43.922;2023-11-19T08:21:59;101694.31;;;-0.31;51.15
74893;BME280;63446;56.272;43.922;2023-11-19T08:24:25;101693.00;;;-0.35;51.21
74893;BME280;63446;56.272;43.922;2023-11-19T08:26:51;101695.59;;;-0.35;51.24
74893;BME280;63446;56.272;43.922;2023-11-19T08:29:18;101697.88;;;-0.32;50.99
74893;BME280;63446;56.272;43.922;2023-11-19T08:31:44;101696.75;;;-0.30;50.83
74893;BME280;63446;56.272;43.922;2023-11-19T08:34:11;101698.53;;;-0.22;50.71
74893;BME280;63446;56.272;43.922;2023-11-19T08:36:37;101695.59;;;-0.11;50.49
74893;BME280;63446;56.272;43.922;2023-11-19T08:39:03;101686.47;;;0.02;50.42
74893;BME280;63446;56.272;43.922;2023-11-19T08:41:29;101681.25;;;0.10;50.49
74893;BME280;63446;56.272;43.922;2023-11-19T08:43:55;101686.75;;;0.15;50.14
74893;BME280;63446;56.272;43.922;2023-11-19T08:46:22;101688.19;;;0.17;49.94
74893;BME280;63446;56.272;43.922;2023-11-19T08:48:48;101694.06;;;0.19;49.75
74893;BME280;63446;56.272;43.922;2023-11-19T08:51:14;101696.31;;;0.22;49.84
74893;BME280;63446;56.272;43.922;2023-11-19T08:53:40;101695.34;;;0.23;49.70
74893;BME280;63446;56.272;43.922;2023-11-19T08:56:06;101692.41;;;0.18;49.76
74893;BME280;63446;56.272;43.922;2023-11-19T08:58:33;101692.13;;;0.13;49.79
74893;BME280;63446;56.272;43.922;2023-11-19T09:00:59;101691.81;;;0.08;49.72
74893;BME280;63446;56.272;43.922;2023-11-19T09:03:26;101689.06;;;0.02;49.83
74893;BME280;63446;56.272;43.922;2023-11-19T09:05:53;101690.69;;;-0.06;50.00
74893;BME280;63446;56.272;43.922;2023-11-19T09:08:18;101686.31;;;-0.13;49.85
74893;BME280;63446;56.272;43.922;2023-11-19T09:10:45;101686.16;;;-0.20;49.85
74893;BME280;63446;56.272;43.922;2023-11-19T09:13:11;101685.06;;;-0.26;49.73
74893;BME280;63446;56.272;43.922;2023-11-19T09:15:37;101681.16;;;-0.30;49.84
74893;BME280;63446;56.272;43.922;2023-11-19T09:18:03;101683.41;;;-0.35;49.79
74893;BME280;63446;56.272;43.922;2023-11-19T09:20:30;101682.00;;;-0.45;49.87
74893;BME280;63446;56.272;43.922;2023-11-19T09:23:03;101680.22;;;-0.53;49.91
74893;BME280;63446;56.272;43.922;2023-11-19T09:25:29;101668.38;;;-0.64;49.89
74893;BME280;63446;56.272;43.922;2023-11-19T09:27:55;101668.19;;;-0.70;49.97
74893;BME280;63446;56.272;43.922;2023-11-19T09:30:21;101666.25;;;-0.77;49.85
74893;BME280;63446;56.272;43.922;2023-11-19T09:32:48;101664.13;;;-0.81;50.01
74893;BME280;63446;56.272;43.922;2023-11-19T09:35:14;101668.38;;;-0.80;50.13
74893;BME280;63446;56.272;43.922;2023-11-19T09:37:43;101669.19;;;-0.80;50.13
74893;BME280;63446;56.272;43.922;2023-11-19T09:40:09;101667.88;;;-0.84;50.07
74893;BME280;63446;56.272;43.922;2023-11-19T09:42:43;101671.78;;;-0.88;50.07
74893;BME280;63446;56.272;43.922;2023-11-19T09:45:16;101678.41;;;-0.93;50.13
74893;BME280;63446;56.272;43.922;2023-11-19T09:47:44;101679.69;;;-0.98;50.15
74893;BME280;63446;56.272;43.922;2023-11-19T09:50:17;101670.59;;;-1.02;50.17
74893;BME280;63446;56.272;43.922;2023-11-19T09:52:46;101678.38;;;-1.02;50.27
74893;BME280;63446;56.272;43.922;2023-11-19T09:55:12;101669.00;;;-1.03;50.14
74893;BME280;63446;56.272;43.922;2023-11-19T09:57:40;101657.81;;;-1.03;50.21
74893;BME280;63446;56.272;43.922;2023-11-19T10:00:08;101663.13;;;-1.05;50.31
74893;BME280;63446;56.272;43.922;2023-11-19T10:02:37;101665.41;;;-1.10;50.30
74893;BME280;63446;56.272;43.922;2023-11-19T10:05:06;101671.56;;;-1.11;50.30
74893;BME280;63446;56.272;43.922;2023-11-19T10:07:34;101665.09;;;-1.15;50.48
74893;BME280;63446;56.272;43.922;2023-11-19T10:10:01;101668.13;;;-1.19;50.33
74893;BME280;63446;56.272;43.922;2023-11-19T10:12:29;101668.63;;;-1.24;50.42
74893;BME280;63446;56.272;43.922;2023-11-19T10:14:56;101672.81;;;-1.31;50.45
74893;BME280;63446;56.272;43.922;2023-11-19T10:17:33;101674.91;;;-1.35;50.47
74893;BME280;63446;56.272;43.922;2023-11-19T10:20:01;101669.06;;;-1.37;50.58
74893;BME280;63446;56.272;43.922;2023-11-19T10:22:30;101674.91;;;-1.35;50.58
74893;BME280;63446;56.272;43.922;2023-11-19T10:24:56;101675.06;;;-1.36;50.56
74893;BME280;63446;56.272;43.922;2023-11-19T10:27:25;101672.47;;;-1.36;50.63
74893;BME280;63446;56.272;43.922;2023-11-19T10:29:51;101666.47;;;-1.37;50.55
74893;BME280;63446;56.272;43.922;2023-11-19T10:32:17;101671.38;;;-1.34;50.49
74893;BME280;63446;56.272;43.922;2023-11-19T10:34:43;101668.59;;;-1.32;50.47
74893;BME280;63446;56.272;43.922;2023-11-19T10:37:29;101669.41;;;-1.32;50.49
74893;BME280;63446;56.272;43.922;2023-11-19T10:39:58;101663.09;;;-1.29;50.46
74893;BME280;63446;56.272;43.922;2023-11-19T10:42:24;101669.75;;;-1.27;50.56
74893;BME280;63446;56.272;43.922;2023-11-19T10:44:50;101658.41;;;-1.26;50.62
74893;BME280;63446;56.272;43.922;2023-11-19T10:47:18;101672.19;;;-1.25;50.57
74893;BME280;63446;56.272;43.922;2023-11-19T10:49:46;101667.31;;;-1.28;50.58
74893;BME280;63446;56.272;43.922;2023-11-19T10:52:17;101669.91;;;-1.28;50.54
74893;BME280;63446;56.272;43.922;2023-11-19T10:54:50;101667.31;;;-1.28;50.53
74893;BME280;63446;56.272;43.922;2023-11-19T10:57:25;101669.25;;;-1.30;50.63
74893;BME280;63446;56.272;43.922;2023-11-19T11:00:01;101669.91;;;-1.28;50.69
74893;BME280;63446;56.272;43.922;2023-11-19T11:02:35;101670.72;;;-1.28;50.62
74893;BME280;63446;56.272;43.922;2023-11-19T11:05:07;101673.47;;;-1.29;50.44
74893;BME280;63446;56.272;43.922;2023-11-19T11:07:33;101672.34;;;-1.27;50.62
74893;BME280;63446;56.272;43.922;2023-11-19T11:10:01;101681.75;;;-1.26;50.56
74893;BME280;63446;56.272;43.922;2023-11-19T11:12:35;101669.41;;;-1.32;50.64
74893;BME280;63446;56.272;43.922;2023-11-19T11:15:04;101670.88;;;-1.29;50.73
74893;BME280;63446;56.272;43.922;2023-11-19T11:17:33;101661.78;;;-1.33;50.81
74893;BME280;63446;56.272;43.922;2023-11-19T11:20:00;101670.88;;;-1.37;50.63
74893;BME280;63446;56.272;43.922;2023-11-19T11:22:28;101665.97;;;-1.40;50.67
74893;BME280;63446;56.272;43.922;2023-11-19T11:27:56;101659.31;;;-1.43;50.74
74893;BME280;63446;56.272;43.922;2023-11-19T11:30:31;101664.38;;;-1.41;50.70
74893;BME280;63446;56.272;43.922;2023-11-19T11:35:48;101661.09;;;-1.43;50.70
74893;BME280;63446;56.272;43.922;2023-11-19T11:38:21;101663.88;;;-1.45;50.64
74893;BME280;63446;56.272;43.922;2023-11-19T11:41:15;101664.19;;;-1.48;50.73
74893;BME280;63446;56.272;43.922;2023-11-19T11:43:50;101669.03;;;-1.53;50.69
74893;BME280;63446;56.272;43.922;2023-11-19T11:49:06;101669.16;;;-1.63;50.82
74893;BME280;63446;56.272;43.922;2023-11-19T11:59:53;101677.34;;;-1.76;50.78
74893;BME280;63446;56.272;43.922;2023-11-19T12:02:22;101682.03;;;-1.79;50.99
74893;BME280;63446;56.272;43.922;2023-11-19T12:04:50;101678.94;;;-1.83;50.96
74893;BME280;63446;56.272;43.922;2023-11-19T12:07:19;101684.44;;;-1.86;51.07
74893;BME280;63446;56.272;43.922;2023-11-19T12:09:52;101682.13;;;-1.89;51.20
74893;BME280;63446;56.272;43.922;2023-11-19T12:12:26;101685.72;;;-1.90;51.15
74893;BME280;63446;56.272;43.922;2023-11-19T12:15:06;101683.41;;;-1.93;51.10
74893;BME280;63446;56.272;43.922;2023-11-19T12:20:05;101672.88;;;-2.00;51.16
74893;BME280;63446;56.272;43.922;2023-11-19T12:22:38;101685.00;;;-2.00;51.15
74893;BME280;63446;56.272;43.922;2023-11-19T12:25:05;101686.94;;;-2.02;51.13
74893;BME280;63446;56.272;43.922;2023-11-19T12:27:33;101678.81;;;-2.07;51.31
74893;BME280;63446;56.272;43.922;2023-11-19T12:30:03;101684.13;;;-2.09;51.29
74893;BME280;63446;56.272;43.922;2023-11-19T12:32:43;101682.81;;;-2.13;51.21
74893;BME280;63446;56.272;43.922;2023-11-19T12:35:10;101685.72;;;-2.16;51.28
74893;BME280;63446;56.272;43.922;2023-11-19T12:37:45;101681.81;;;-2.20;51.29
74893;BME280;63446;56.272;43.922;2023-11-19T12:42:41;101673.22;;;-2.21;51.41
74893;BME280;63446;56.272;43.922;2023-11-19T12:45:08;101679.38;;;-2.22;51.46
74893;BME280;63446;56.272;43.922;2023-11-19T12:47:43;101675.31;;;-2.24;51.37
74893;BME280;63446;56.272;43.922;2023-11-19T12:50:14;101669.31;;;-2.25;51.47
74893;BME280;63446;56.272;43.922;2023-11-19T12:53:01;101661.84;;;-2.28;51.41
74893;BME280;63446;56.272;43.922;2023-11-19T12:55:34;101655.22;;;-2.30;51.50
74893;BME280;63446;56.272;43.922;2023-11-19T12:58:51;101654.84;;;-2.35;51.57
74893;BME280;63446;56.272;43.922;2023-11-19T13:04:39;101654.66;;;-2.42;51.60
74893;BME280;63446;56.272;43.922;2023-11-19T13:07:22;101648.97;;;-2.46;51.50
74893;BME280;63446;56.272;43.922;2023-11-19T13:09:50;101647.63;;;-2.50;51.69